sensor_id;sensor_type;location;lat;lon;timestamp;P1;durP1;ratioP1;P2;durP2;ratioP2
6420;SDS011;3243;50.958;7.012;2024-03-02T00:00:50;3.50;;;2.00;;
6420;SDS011;3243;50.958;7.012;2024-03-02T00:03:18;2.37;;;2.00;;
6420;SDS011;3243;50.958;7.012;2024-03-02T00:05:49;3.70;;;2.13;;
6420;SDS011;3243;50.958;7.012;2024-03-02T00:08:20;2.13;;;1.93;;
6420;SDS011;3243;50.958;7.012;2024-03-02T00:10:57;3.67;;;1.90;;
6420;SDS011;3243;50.958;7.012;2024-03-02T00:13:25;2.43;;;2.20;;
6420;SDS011;3243;50.958;7.012;2024-03-02T00:15:53;2.80;;;2.00;;
6420;SDS011;3243;50.958;7.012;2024-03-02T00:18:30;4.40;;;2.43;;
6420;SDS011;3243;50.958;7.012;2024-03-02T00:20:59;2.23;;;2.03;;
6420;SDS011;3243;50.958;7.012;2024-03-02T00:23:27;2.37;;;2.00;;
6420;SDS011;3243;50.958;7.012;2024-03-02T00:25:59;4.70;;;2.10;;
6420;SDS011;3243;50.958;7.012;2024-03-02T00:28:27;3.40;;;2.00;;
6420;SDS011;3243;50.958;7.012;2024-03-02T00:33:33;2.80;;;1.97;;
6420;SDS011;3243;50.958;7.012;2024-03-02T00:36:04;3.97;;;2.03;;
6420;SDS011;3243;50.958;7.012;2024-03-02T00:38:33;4.37;;;1.93;;
6420;SDS011;3243;50.958;7.012;2024-03-02T00:41:03;2.10;;;1.90;;
6420;SDS011;3243;50.958;7.012;2024-03-02T00:43:43;2.00;;;1.80;;
6420;SDS011;3243;50.958;7.012;2024-03-02T00:46:20;3.00;;;1.70;;
6420;SDS011;3243;50.958;7.012;2024-03-02T00:48:57;2.20;;;1.90;;
6420;SDS011;3243;50.958;7.012;2024-03-02T00:51:26;2.10;;;1.90;;
6420;SDS011;3243;50.958;7.012;2024-03-02T00:53:54;3.10;;;1.97;;
6420;SDS011;3243;50.958;7.012;2024-03-02T00:56:24;2.47;;;1.90;;
6420;SDS011;3243;50.958;7.012;2024-03-02T00:58:51;2.20;;;2.00;;
6420;SDS011;3243;50.958;7.012;2024-03-02T01:01:19;2.57;;;1.90;;
6420;SDS011;3243;50.958;7.012;2024-03-02T01:03:46;2.57;;;1.80;;
6420;SDS011;3243;50.958;7.012;2024-03-02T01:06:13;2.10;;;1.90;;
6420;SDS011;3243;50.958;7.012;2024-03-02T01:08:41;1.97;;;1.83;;
6420;SDS011;3243;50.958;7.012;2024-03-02T01:11:08;2.07;;;1.93;;
6420;SDS011;3243;50.958;7.012;2024-03-02T01:13:35;2.10;;;1.87;;
6420;SDS011;3243;50.958;7.012;2024-03-02T01:16:03;2.33;;;1.87;;
6420;SDS011;3243;50.958;7.012;2024-03-02T01:18:30;1.80;;;1.70;;
6420;SDS011;3243;50.958;7.012;2024-03-02T01:20:57;2.57;;;1.80;;
6420;SDS011;3243;50.958;7.012;2024-03-02T01:23:25;2.70;;;2.00;;
6420;SDS011;3243;50.958;7.012;2024-03-02T01:25:51;2.10;;;1.90;;
6420;SDS011;3243;50.958;7.012;2024-03-02T01:28:19;1.90;;;1.80;;
6420;SDS011;3243;50.958;7.012;2024-03-02T01:30:47;2.37;;;1.60;;
6420;SDS011;3243;50.958;7.012;2024-03-02T01:33:15;2.80;;;1.77;;
6420;SDS011;3243;50.958;7.012;2024-03-02T01:35:45;3.37;;;2.00;;
6420;SDS011;3243;50.958;7.012;2024-03-02T01:38:13;2.10;;;1.80;;
6420;SDS011;3243;50.958;7.012;2024-03-02T01:40:39;1.90;;;1.70;;
6420;SDS011;3243;50.958;7.012;2024-03-02T01:43:06;2.20;;;2.00;;
6420;SDS011;3243;50.958;7.012;2024-03-02T01:45:34;2.00;;;1.70;;
6420;SDS011;3243;50.958;7.012;2024-03-02T01:48:02;2.67;;;2.10;;
6420;SDS011;3243;50.958;7.012;2024-03-02T01:50:33;2.10;;;1.90;;
6420;SDS011;3243;50.958;7.012;2024-03-02T01:53:00;2.37;;;2.10;;
6420;SDS011;3243;50.958;7.012;2024-03-02T01:55:29;2.67;;;1.83;;
6420;SDS011;3243;50.958;7.012;2024-03-02T01:57:57;3.53;;;1.97;;
6420;SDS011;3243;50.958;7.012;2024-03-02T02:00:25;2.30;;;2.00;;
6420;SDS011;3243;50.958;7.012;2024-03-02T02:02:53;1.80;;;1.70;;
6420;SDS011;3243;50.958;7.012;2024-03-02T02:05:21;1.80;;;1.70;;
6420;SDS011;3243;50.958;7.012;2024-03-02T02:07:48;2.57;;;1.90;;
6420;SDS011;3243;50.958;7.012;2024-03-02T02:10:15;4.20;;;1.90;;
6420;SDS011;3243;50.958;7.012;2024-03-02T02:12:42;3.17;;;1.87;;
6420;SDS011;3243;50.958;7.012;2024-03-02T02:17:51;2.43;;;1.70;;
6420;SDS011;3243;50.958;7.012;2024-03-02T02:20:19;1.93;;;1.80;;
6420;SDS011;3243;50.958;7.012;2024-03-02T02:25:39;1.90;;;1.70;;
6420;SDS011;3243;50.958;7.012;2024-03-02T02:28:07;1.87;;;1.57;;
6420;SDS011;3243;50.958;7.012;2024-03-02T02:30:33;3.63;;;1.93;;
6420;SDS011;3243;50.958;7.012;2024-03-02T02:33:01;2.60;;;1.80;;
6420;SDS011;3243;50.958;7.012;2024-03-02T02:35:28;1.93;;;1.73;;
6420;SDS011;3243;50.958;7.012;2024-03-02T02:37:55;2.53;;;1.90;;
6420;SDS011;3243;50.958;7.012;2024-03-02T02:40:23;2.10;;;1.90;;
6420;SDS011;3243;50.958;7.012;2024-03-02T02:42:50;1.83;;;1.60;;
6420;SDS011;3243;50.958;7.012;2024-03-02T02:45:20;3.30;;;2.00;;
6420;SDS011;3243;50.958;7.012;2024-03-02T02:47:47;2.40;;;1.73;;
6420;SDS011;3243;50.958;7.012;2024-03-02T02:50:14;2.47;;;1.80;;
6420;SDS011;3243;50.958;7.012;2024-03-02T02:52:41;2.70;;;1.73;;
6420;SDS011;3243;50.958;7.012;2024-03-02T02:55:12;2.60;;;1.80;;
6420;SDS011;3243;50.958;7.012;2024-03-02T02:57:40;2.47;;;1.60;;
6420;SDS011;3243;50.958;7.012;2024-03-02T03:00:10;2.27;;;1.80;;
6420;SDS011;3243;50.958;7.012;2024-03-02T03:02:40;2.27;;;1.80;;
6420;SDS011;3243;50.958;7.012;2024-03-02T03:05:09;1.93;;;1.80;;
6420;SDS011;3243;50.958;7.012;2024-03-02T03:07:36;1.80;;;1.70;;
6420;SDS011;3243;50.958;7.012;2024-03-02T03:10:04;2.33;;;1.60;;
6420;SDS011;3243;50.958;7.012;2024-03-02T03:12:33;4.03;;;1.80;;
6420;SDS011;3243;50.958;7.012;2024-03-02T03:15:00;1.93;;;1.73;;
6420;SDS011;3243;50.958;7.012;2024-03-02T03:17:28;2.83;;;2.10;;
6420;SDS011;3243;50.958;7.012;2024-03-02T03:19:55;2.03;;;1.80;;
6420;SDS011;3243;50.958;7.012;2024-03-02T03:22:22;2.20;;;2.00;;
6420;SDS011;3243;50.958;7.012;2024-03-02T03:24:49;2.20;;;1.80;;
6420;SDS011;3243;50.958;7.012;2024-03-02T03:27:16;2.63;;;2.00;;
6420;SDS011;3243;50.958;7.012;2024-03-02T03:29:44;2.07;;;1.83;;
6420;SDS011;3243;50.958;7.012;2024-03-02T03:32:11;3.20;;;2.03;;
6420;SDS011;3243;50.958;7.012;2024-03-02T03:34:37;2.10;;;1.77;;
6420;SDS011;3243;50.958;7.012;2024-03-02T03:37:04;2.50;;;1.90;;
6420;SDS011;3243;50.958;7.012;2024-03-02T03:39:31;1.80;;;1.70;;
6420;SDS011;3243;50.958;7.012;2024-03-02T03:42:00;2.20;;;1.90;;
6420;SDS011;3243;50.958;7.012;2024-03-02T03:44:27;3.73;;;1.93;;
6420;SDS011;3243;50.958;7.012;2024-03-02T03:46:55;2.37;;;1.73;;
6420;SDS011;3243;50.958;7.012;2024-03-02T03:49:21;3.33;;;1.90;;
6420;SDS011;3243;50.958;7.012;2024-03-02T03:51:48;2.40;;;1.80;;
6420;SDS011;3243;50.958;7.012;2024-03-02T03:54:15;2.77;;;1.80;;
6420;SDS011;3243;50.958;7.012;2024-03-02T03:56:42;1.97;;;1.77;;
6420;SDS011;3243;50.958;7.012;2024-03-02T03:59:10;2.07;;;1.87;;
6420;SDS011;3243;50.958;7.012;2024-03-02T04:01:37;2.30;;;1.77;;
6420;SDS011;3243;50.958;7.012;2024-03-02T04:04:04;2.23;;;1.83;;
6420;SDS011;3243;50.958;7.012;2024-03-02T04:06:30;2.43;;;1.90;;
6420;SDS011;3243;50.958;7.012;2024-03-02T04:08:58;1.70;;;1.60;;
6420;SDS011;3243;50.958;7.012;2024-03-02T04:11:25;1.50;;;1.40;;
6420;SDS011;3243;50.958;7.012;2024-03-02T04:13:51;2.47;;;2.07;;
6420;SDS011;3243;50.958;7.012;2024-03-02T04:16:22;2.97;;;2.00;;
6420;SDS011;3243;50.958;7.012;2024-03-02T04:18:49;1.63;;;1.53;;
6420;SDS011;3243;50.958;7.012;2024-03-02T04:21:16;2.10;;;1.90;;
6420;SDS011;3243;50.958;7.012;2024-03-02T04:23:43;1.80;;;1.67;;
6420;SDS011;3243;50.958;7.012;2024-03-02T04:26:10;2.30;;;1.80;;
6420;SDS011;3243;50.958;7.012;2024-03-02T04:28:37;3.07;;;2.00;;
6420;SDS011;3243;50.958;7.012;2024-03-02T04:31:04;2.20;;;2.00;;
6420;SDS011;3243;50.958;7.012;2024-03-02T04:33:31;2.53;;;1.90;;
6420;SDS011;3243;50.958;7.012;2024-03-02T04:35:58;3.20;;;2.00;;
6420;SDS011;3243;50.958;7.012;2024-03-02T04:38:25;2.43;;;1.97;;
6420;SDS011;3243;50.958;7.012;2024-03-02T04:40:52;2.57;;;2.23;;
6420;SDS011;3243;50.958;7.012;2024-03-02T04:43:19;2.97;;;2.30;;
6420;SDS011;3243;50.958;7.012;2024-03-02T04:45:46;3.13;;;2.00;;
6420;SDS011;3243;50.958;7.012;2024-03-02T04:48:13;4.27;;;2.30;;
6420;SDS011;3243;50.958;7.012;2024-03-02T04:50:41;3.07;;;1.97;;
6420;SDS011;3243;50.958;7.012;2024-03-02T04:53:07;4.47;;;2.03;;
6420;SDS011;3243;50.958;7.012;2024-03-02T04:55:34;2.73;;;1.70;;
6420;SDS011;3243;50.958;7.012;2024-03-02T04:58:21;2.27;;;1.83;;
6420;SDS011;3243;50.958;7.012;2024-03-02T05:00:48;4.10;;;1.77;;
6420;SDS011;3243;50.958;7.012;2024-03-02T05:03:15;2.23;;;1.90;;
6420;SDS011;3243;50.958;7.012;2024-03-02T05:05:42;2.10;;;1.90;;
6420;SDS011;3243;50.958;7.012;2024-03-02T05:08:10;2.10;;;1.90;;
6420;SDS011;3243;50.958;7.012;2024-03-02T05:10:38;3.63;;;2.10;;
6420;SDS011;3243;50.958;7.012;2024-03-02T05:13:05;1.70;;;1.60;;
6420;SDS011;3243;50.958;7.012;2024-03-02T05:15:32;1.97;;;1.60;;
6420;SDS011;3243;50.958;7.012;2024-03-02T05:17:59;3.80;;;1.90;;
6420;SDS011;3243;50.958;7.012;2024-03-02T05:20:29;2.67;;;2.00;;
6420;SDS011;3243;50.958;7.012;2024-03-02T05:22:56;2.93;;;1.90;;
6420;SDS011;3243;50.958;7.012;2024-03-02T05:25:23;2.93;;;2.07;;
6420;SDS011;3243;50.958;7.012;2024-03-02T05:27:50;2.77;;;1.93;;
6420;SDS011;3243;50.958;7.012;2024-03-02T05:30:17;2.47;;;2.13;;
6420;SDS011;3243;50.958;7.012;2024-03-02T05:32:44;2.80;;;2.20;;
6420;SDS011;3243;50.958;7.012;2024-03-02T05:35:11;7.73;;;2.20;;
6420;SDS011;3243;50.958;7.012;2024-03-02T05:37:39;3.50;;;2.10;;
6420;SDS011;3243;50.958;7.012;2024-03-02T05:40:06;3.17;;;2.10;;
6420;SDS011;3243;50.958;7.012;2024-03-02T05:42:34;3.57;;;2.13;;
6420;SDS011;3243;50.958;7.012;2024-03-02T05:45:01;2.50;;;2.00;;
6420;SDS011;3243;50.958;7.012;2024-03-02T05:47:28;2.80;;;2.20;;
6420;SDS011;3243;50.958;7.012;2024-03-02T05:49:55;5.30;;;2.30;;
6420;SDS011;3243;50.958;7.012;2024-03-02T05:52:22;2.87;;;2.20;;
6420;SDS011;3243;50.958;7.012;2024-03-02T05:54:49;2.20;;;2.00;;
6420;SDS011;3243;50.958;7.012;2024-03-02T05:57:16;3.13;;;2.30;;
6420;SDS011;3243;50.958;7.012;2024-03-02T05:59:49;5.50;;;2.10;;
6420;SDS011;3243;50.958;7.012;2024-03-02T06:02:16;2.97;;;2.20;;
6420;SDS011;3243;50.958;7.012;2024-03-02T06:04:43;2.60;;;2.20;;
6420;SDS011;3243;50.958;7.012;2024-03-02T06:07:10;2.73;;;2.40;;
6420;SDS011;3243;50.958;7.012;2024-03-02T06:09:37;3.13;;;2.30;;
6420;SDS011;3243;50.958;7.012;2024-03-02T06:12:04;4.40;;;2.47;;
6420;SDS011;3243;50.958;7.012;2024-03-02T06:14:31;3.53;;;2.63;;
6420;SDS011;3243;50.958;7.012;2024-03-02T06:16:58;2.90;;;2.30;;
6420;SDS011;3243;50.958;7.012;2024-03-02T06:19:25;4.10;;;2.30;;
6420;SDS011;3243;50.958;7.012;2024-03-02T06:21:53;3.90;;;2.70;;
6420;SDS011;3243;50.958;7.012;2024-03-02T06:24:20;3.40;;;2.57;;
6420;SDS011;3243;50.958;7.012;2024-03-02T06:26:48;3.87;;;2.83;;
6420;SDS011;3243;50.958;7.012;2024-03-02T06:29:14;3.13;;;2.60;;
6420;SDS011;3243;50.958;7.012;2024-03-02T06:31:42;4.03;;;2.70;;
6420;SDS011;3243;50.958;7.012;2024-03-02T06:34:09;2.53;;;2.33;;
6420;SDS011;3243;50.958;7.012;2024-03-02T06:36:36;4.03;;;2.67;;
6420;SDS011;3243;50.958;7.012;2024-03-02T06:39:04;5.07;;;2.67;;
6420;SDS011;3243;50.958;7.012;2024-03-02T06:41:31;7.53;;;4.17;;
6420;SDS011;3243;50.958;7.012;2024-03-02T06:43:58;5.57;;;3.10;;
6420;SDS011;3243;50.958;7.012;2024-03-02T06:46:28;3.57;;;2.90;;
6420;SDS011;3243;50.958;7.012;2024-03-02T06:48:55;3.73;;;2.77;;
6420;SDS011;3243;50.958;7.012;2024-03-02T06:51:22;4.30;;;3.00;;
6420;SDS011;3243;50.958;7.012;2024-03-02T06:53:49;5.60;;;2.90;;
6420;SDS011;3243;50.958;7.012;2024-03-02T06:56:16;3.57;;;2.87;;
6420;SDS011;3243;50.958;7.012;2024-03-02T06:58:43;5.43;;;3.70;;
6420;SDS011;3243;50.958;7.012;2024-03-02T07:01:10;3.30;;;2.73;;
6420;SDS011;3243;50.958;7.012;2024-03-02T07:03:38;3.63;;;2.90;;
6420;SDS011;3243;50.958;7.012;2024-03-02T07:06:05;3.10;;;2.80;;
6420;SDS011;3243;50.958;7.012;2024-03-02T07:08:32;4.13;;;3.10;;
6420;SDS011;3243;50.958;7.012;2024-03-02T07:11:00;4.60;;;2.80;;
6420;SDS011;3243;50.958;7.012;2024-03-02T07:13:27;6.33;;;2.80;;
6420;SDS011;3243;50.958;7.012;2024-03-02T07:15:54;3.10;;;2.80;;
6420;SDS011;3243;50.958;7.012;2024-03-02T07:18:47;5.57;;;3.00;;
6420;SDS011;3243;50.958;7.012;2024-03-02T07:21:18;4.37;;;3.20;;
6420;SDS011;3243;50.958;7.012;2024-03-02T07:23:45;5.93;;;2.83;;
6420;SDS011;3243;50.958;7.012;2024-03-02T07:26:11;3.93;;;2.70;;
6420;SDS011;3243;50.958;7.012;2024-03-02T07:28:41;5.80;;;3.03;;
6420;SDS011;3243;50.958;7.012;2024-03-02T07:31:10;3.53;;;2.80;;
6420;SDS011;3243;50.958;7.012;2024-03-02T07:33:36;3.70;;;2.80;;
6420;SDS011;3243;50.958;7.012;2024-03-02T07:36:03;5.63;;;3.07;;
6420;SDS011;3243;50.958;7.012;2024-03-02T07:38:31;4.83;;;2.90;;
6420;SDS011;3243;50.958;7.012;2024-03-02T07:41:00;3.93;;;2.80;;
6420;SDS011;3243;50.958;7.012;2024-03-02T07:43:27;3.97;;;3.03;;
6420;SDS011;3243;50.958;7.012;2024-03-02T07:45:54;3.83;;;2.77;;
6420;SDS011;3243;50.958;7.012;2024-03-02T07:48:22;3.80;;;2.50;;
6420;SDS011;3243;50.958;7.012;2024-03-02T07:50:49;5.03;;;3.00;;
6420;SDS011;3243;50.958;7.012;2024-03-02T07:53:15;3.50;;;2.80;;
6420;SDS011;3243;50.958;7.012;2024-03-02T07:55:42;5.03;;;2.73;;
6420;SDS011;3243;50.958;7.012;2024-03-02T07:58:09;4.77;;;2.70;;
6420;SDS011;3243;50.958;7.012;2024-03-02T08:00:38;3.93;;;2.70;;
6420;SDS011;3243;50.958;7.012;2024-03-02T08:03:06;3.23;;;2.70;;
6420;SDS011;3243;50.958;7.012;2024-03-02T08:05:37;3.20;;;2.80;;
6420;SDS011;3243;50.958;7.012;2024-03-02T08:08:05;3.27;;;2.70;;
6420;SDS011;3243;50.958;7.012;2024-03-02T08:10:32;4.27;;;3.00;;
6420;SDS011;3243;50.958;7.012;2024-03-02T08:12:59;3.97;;;2.80;;
6420;SDS011;3243;50.958;7.012;2024-03-02T08:15:26;5.47;;;2.93;;
6420;SDS011;3243;50.958;7.012;2024-03-02T08:17:53;5.77;;;3.00;;
6420;SDS011;3243;50.958;7.012;2024-03-02T08:20:22;3.90;;;2.53;;
6420;SDS011;3243;50.958;7.012;2024-03-02T08:22:49;3.60;;;2.73;;
6420;SDS011;3243;50.958;7.012;2024-03-02T08:25:16;5.83;;;2.70;;
6420;SDS011;3243;50.958;7.012;2024-03-02T08:27:43;3.53;;;2.60;;
6420;SDS011;3243;50.958;7.012;2024-03-02T08:30:11;4.37;;;2.63;;
6420;SDS011;3243;50.958;7.012;2024-03-02T08:32:38;5.67;;;2.57;;
6420;SDS011;3243;50.958;7.012;2024-03-02T08:35:06;3.37;;;2.73;;
6420;SDS011;3243;50.958;7.012;2024-03-02T08:37:33;3.73;;;2.77;;
6420;SDS011;3243;50.958;7.012;2024-03-02T08:40:00;3.63;;;2.90;;
6420;SDS011;3243;50.958;7.012;2024-03-02T08:42:27;6.47;;;2.90;;
6420;SDS011;3243;50.958;7.012;2024-03-02T08:44:55;5.13;;;2.90;;
6420;SDS011;3243;50.958;7.012;2024-03-02T08:47:22;5.43;;;2.90;;
6420;SDS011;3243;50.958;7.012;2024-03-02T08:49:49;3.43;;;2.50;;
6420;SDS011;3243;50.958;7.012;2024-03-02T08:52:16;4.77;;;2.87;;
6420;SDS011;3243;50.958;7.012;2024-03-02T08:54:43;3.63;;;2.50;;
6420;SDS011;3243;50.958;7.012;2024-03-02T08:57:10;3.30;;;2.60;;
6420;SDS011;3243;50.958;7.012;2024-03-02T08:59:37;5.43;;;2.70;;
6420;SDS011;3243;50.958;7.012;2024-03-02T09:02:04;4.30;;;2.63;;
6420;SDS011;3243;50.958;7.012;2024-03-02T09:04:31;3.03;;;2.10;;
6420;SDS011;3243;50.958;7.012;2024-03-02T09:07:00;3.20;;;2.07;;
6420;SDS011;3243;50.958;7.012;2024-03-02T09:09:28;3.10;;;1.80;;
6420;SDS011;3243;50.958;7.012;2024-03-02T09:11:55;3.13;;;2.20;;
6420;SDS011;3243;50.958;7.012;2024-03-02T09:14:24;3.03;;;2.00;;
6420;SDS011;3243;50.958;7.012;2024-03-02T09:16:50;2.63;;;2.10;;
6420;SDS011;3243;50.958;7.012;2024-03-02T09:19:17;3.60;;;2.00;;
6420;SDS011;3243;50.958;7.012;2024-03-02T09:21:45;2.33;;;1.80;;
6420;SDS011;3243;50.958;7.012;2024-03-02T09:24:12;5.40;;;1.97;;
6420;SDS011;3243;50.958;7.012;2024-03-02T09:26:43;4.93;;;1.90;;
6420;SDS011;3243;50.958;7.012;2024-03-02T09:29:10;3.17;;;2.33;;
6420;SDS011;3243;50.958;7.012;2024-03-02T09:31:41;2.17;;;1.83;;
6420;SDS011;3243;50.958;7.012;2024-03-02T09:34:08;4.10;;;1.97;;
6420;SDS011;3243;50.958;7.012;2024-03-02T09:36:35;3.10;;;2.00;;
6420;SDS011;3243;50.958;7.012;2024-03-02T09:39:02;3.00;;;1.80;;
6420;SDS011;3243;50.958;7.012;2024-03-02T09:41:30;7.67;;;2.13;;
6420;SDS011;3243;50.958;7.012;2024-03-02T09:43:57;2.27;;;2.00;;
6420;SDS011;3243;50.958;7.012;2024-03-02T09:46:24;4.07;;;2.03;;
6420;SDS011;3243;50.958;7.012;2024-03-02T09:48:51;2.60;;;1.87;;
6420;SDS011;3243;50.958;7.012;2024-03-02T09:51:19;2.23;;;1.80;;
6420;SDS011;3243;50.958;7.012;2024-03-02T09:53:46;2.97;;;2.00;;
6420;SDS011;3243;50.958;7.012;2024-03-02T09:56:14;3.43;;;1.90;;
6420;SDS011;3243;50.958;7.012;2024-03-02T09:58:42;3.80;;;2.10;;
6420;SDS011;3243;50.958;7.012;2024-03-02T10:01:10;3.97;;;2.20;;
6420;SDS011;3243;50.958;7.012;2024-03-02T10:03:37;3.50;;;2.10;;
6420;SDS011;3243;50.958;7.012;2024-03-02T10:06:24;2.43;;;1.80;;
6420;SDS011;3243;50.958;7.012;2024-03-02T10:08:52;2.43;;;1.73;;
6420;SDS011;3243;50.958;7.012;2024-03-02T10:11:32;2.50;;;2.00;;
6420;SDS011;3243;50.958;7.012;2024-03-02T10:14:19;2.03;;;1.83;;
6420;SDS011;3243;50.958;7.012;2024-03-02T10:16:46;3.77;;;1.97;;
6420;SDS011;3243;50.958;7.012;2024-03-02T10:21:47;5.70;;;1.80;;
6420;SDS011;3243;50.958;7.012;2024-03-02T10:24:16;3.83;;;2.00;;
6420;SDS011;3243;50.958;7.012;2024-03-02T10:26:43;3.53;;;1.70;;
6420;SDS011;3243;50.958;7.012;2024-03-02T10:29:11;4.83;;;1.87;;
6420;SDS011;3243;50.958;7.012;2024-03-02T10:31:38;4.20;;;2.03;;
6420;SDS011;3243;50.958;7.012;2024-03-02T10:34:06;4.80;;;2.00;;
6420;SDS011;3243;50.958;7.012;2024-03-02T10:36:34;2.77;;;1.83;;
6420;SDS011;3243;50.958;7.012;2024-03-02T10:39:05;2.63;;;2.20;;
6420;SDS011;3243;50.958;7.012;2024-03-02T10:41:34;2.23;;;1.73;;
6420;SDS011;3243;50.958;7.012;2024-03-02T10:44:02;4.23;;;2.50;;
6420;SDS011;3243;50.958;7.012;2024-03-02T10:46:30;6.13;;;3.17;;
6420;SDS011;3243;50.958;7.012;2024-03-02T10:48:59;6.10;;;3.13;;
6420;SDS011;3243;50.958;7.012;2024-03-02T10:51:32;5.40;;;3.60;;
6420;SDS011;3243;50.958;7.012;2024-03-02T10:54:00;7.50;;;4.17;;
6420;SDS011;3243;50.958;7.012;2024-03-02T10:56:28;6.80;;;3.67;;
6420;SDS011;3243;50.958;7.012;2024-03-02T11:01:58;2.47;;;1.90;;
6420;SDS011;3243;50.958;7.012;2024-03-02T11:04:31;3.23;;;1.80;;
6420;SDS011;3243;50.958;7.012;2024-03-02T11:09:42;4.80;;;2.10;;
6420;SDS011;3243;50.958;7.012;2024-03-02T11:12:17;3.00;;;2.00;;
6420;SDS011;3243;50.958;7.012;2024-03-02T11:14:48;2.60;;;1.67;;
6420;SDS011;3243;50.958;7.012;2024-03-02T11:17:20;3.47;;;2.00;;
6420;SDS011;3243;50.958;7.012;2024-03-02T11:19:49;3.87;;;1.87;;
6420;SDS011;3243;50.958;7.012;2024-03-02T11:22:16;3.30;;;1.77;;
6420;SDS011;3243;50.958;7.012;2024-03-02T11:24:51;4.23;;;2.00;;
6420;SDS011;3243;50.958;7.012;2024-03-02T11:33:07;2.17;;;1.60;;
6420;SDS011;3243;50.958;7.012;2024-03-02T11:35:44;2.00;;;1.80;;
6420;SDS011;3243;50.958;7.012;2024-03-02T11:38:15;1.83;;;1.63;;
6420;SDS011;3243;50.958;7.012;2024-03-02T11:40:42;2.97;;;1.90;;
6420;SDS011;3243;50.958;7.012;2024-03-02T11:43:09;3.10;;;1.57;;
6420;SDS011;3243;50.958;7.012;2024-03-02T11:45:37;3.77;;;1.73;;
6420;SDS011;3243;50.958;7.012;2024-03-02T11:48:11;4.23;;;1.90;;
6420;SDS011;3243;50.958;7.012;2024-03-02T11:50:47;3.50;;;1.90;;
6420;SDS011;3243;50.958;7.012;2024-03-02T11:53:16;1.63;;;1.50;;
6420;SDS011;3243;50.958;7.012;2024-03-02T11:55:44;2.10;;;1.70;;
6420;SDS011;3243;50.958;7.012;2024-03-02T11:58:14;1.80;;;1.53;;
6420;SDS011;3243;50.958;7.012;2024-03-02T12:00:47;3.37;;;2.10;;
6420;SDS011;3243;50.958;7.012;2024-03-02T12:03:16;3.87;;;1.70;;
6420;SDS011;3243;50.958;7.012;2024-03-02T12:05:43;4.03;;;1.60;;
6420;SDS011;3243;50.958;7.012;2024-03-02T12:08:14;2.03;;;1.60;;
6420;SDS011;3243;50.958;7.012;2024-03-02T12:10:41;2.77;;;1.77;;
6420;SDS011;3243;50.958;7.012;2024-03-02T12:13:09;2.63;;;1.70;;
6420;SDS011;3243;50.958;7.012;2024-03-02T12:15:38;3.43;;;1.70;;
6420;SDS011;3243;50.958;7.012;2024-03-02T12:18:06;1.93;;;1.73;;
6420;SDS011;3243;50.958;7.012;2024-03-02T12:20:34;4.50;;;1.70;;
6420;SDS011;3243;50.958;7.012;2024-03-02T12:23:01;3.37;;;1.90;;
6420;SDS011;3243;50.958;7.012;2024-03-02T12:25:30;3.03;;;1.80;;
6420;SDS011;3243;50.958;7.012;2024-03-02T12:27:59;4.37;;;1.93;;
6420;SDS011;3243;50.958;7.012;2024-03-02T12:30:31;3.17;;;2.00;;
6420;SDS011;3243;50.958;7.012;2024-03-02T12:33:02;2.00;;;1.70;;
6420;SDS011;3243;50.958;7.012;2024-03-02T12:35:29;2.87;;;1.70;;
6420;SDS011;3243;50.958;7.012;2024-03-02T12:37:56;1.97;;;1.73;;
6420;SDS011;3243;50.958;7.012;2024-03-02T12:40:24;3.47;;;1.77;;
6420;SDS011;3243;50.958;7.012;2024-03-02T12:42:51;1.60;;;1.50;;
6420;SDS011;3243;50.958;7.012;2024-03-02T12:45:18;1.90;;;1.70;;
6420;SDS011;3243;50.958;7.012;2024-03-02T12:47:51;2.43;;;1.33;;
6420;SDS011;3243;50.958;7.012;2024-03-02T12:50:19;1.50;;;1.40;;
6420;SDS011;3243;50.958;7.012;2024-03-02T12:52:53;1.90;;;1.70;;
6420;SDS011;3243;50.958;7.012;2024-03-02T12:55:21;2.77;;;2.00;;
6420;SDS011;3243;50.958;7.012;2024-03-02T12:57:50;1.63;;;1.50;;
6420;SDS011;3243;50.958;7.012;2024-03-02T13:00:18;2.17;;;1.50;;
6420;SDS011;3243;50.958;7.012;2024-03-02T13:02:46;2.23;;;1.73;;
6420;SDS011;3243;50.958;7.012;2024-03-02T13:05:14;3.30;;;1.50;;
6420;SDS011;3243;50.958;7.012;2024-03-02T13:07:42;2.13;;;1.50;;
6420;SDS011;3243;50.958;7.012;2024-03-02T13:10:11;2.20;;;1.40;;
6420;SDS011;3243;50.958;7.012;2024-03-02T13:12:39;1.40;;;1.30;;
6420;SDS011;3243;50.958;7.012;2024-03-02T13:15:06;1.50;;;1.40;;
6420;SDS011;3243;50.958;7.012;2024-03-02T13:17:34;4.27;;;1.70;;
6420;SDS011;3243;50.958;7.012;2024-03-02T13:20:04;1.70;;;1.60;;
6420;SDS011;3243;50.958;7.012;2024-03-02T13:22:34;2.30;;;1.60;;
6420;SDS011;3243;50.958;7.012;2024-03-02T13:25:01;2.23;;;1.50;;
6420;SDS011;3243;50.958;7.012;2024-03-02T13:27:31;2.77;;;1.47;;
6420;SDS011;3243;50.958;7.012;2024-03-02T13:29:58;5.83;;;1.73;;
6420;SDS011;3243;50.958;7.012;2024-03-02T13:32:26;3.60;;;1.90;;
6420;SDS011;3243;50.958;7.012;2024-03-02T13:34:53;2.10;;;1.60;;
6420;SDS011;3243;50.958;7.012;2024-03-02T13:37:20;1.63;;;1.50;;
6420;SDS011;3243;50.958;7.012;2024-03-02T13:39:48;2.30;;;1.60;;
6420;SDS011;3243;50.958;7.012;2024-03-02T13:42:15;2.80;;;1.40;;
6420;SDS011;3243;50.958;7.012;2024-03-02T13:44:45;1.60;;;1.50;;
6420;SDS011;3243;50.958;7.012;2024-03-02T13:47:14;1.70;;;1.60;;
6420;SDS011;3243;50.958;7.012;2024-03-02T13:49:41;2.03;;;1.60;;
6420;SDS011;3243;50.958;7.012;2024-03-02T13:52:13;2.00;;;1.73;;
6420;SDS011;3243;50.958;7.012;2024-03-02T13:54:44;1.63;;;1.50;;
6420;SDS011;3243;50.958;7.012;2024-03-02T13:57:49;3.50;;;1.50;;
6420;SDS011;3243;50.958;7.012;2024-03-02T14:00:17;1.93;;;1.50;;
6420;SDS011;3243;50.958;7.012;2024-03-02T14:02:45;2.00;;;1.43;;
6420;SDS011;3243;50.958;7.012;2024-03-02T14:05:12;1.70;;;1.30;;
6420;SDS011;3243;50.958;7.012;2024-03-02T14:07:40;2.30;;;1.20;;
6420;SDS011;3243;50.958;7.012;2024-03-02T14:10:08;3.20;;;1.50;;
6420;SDS011;3243;50.958;7.012;2024-03-02T14:12:35;3.03;;;1.60;;
6420;SDS011;3243;50.958;7.012;2024-03-02T14:15:02;1.43;;;1.33;;
6420;SDS011;3243;50.958;7.012;2024-03-02T14:17:30;2.80;;;1.47;;
6420;SDS011;3243;50.958;7.012;2024-03-02T14:20:00;1.80;;;1.50;;
6420;SDS011;3243;50.958;7.012;2024-03-02T14:22:27;1.97;;;1.40;;
6420;SDS011;3243;50.958;7.012;2024-03-02T14:24:54;1.70;;;1.47;;
6420;SDS011;3243;50.958;7.012;2024-03-02T14:27:20;1.80;;;1.40;;
6420;SDS011;3243;50.958;7.012;2024-03-02T14:30:04;2.30;;;1.43;;
6420;SDS011;3243;50.958;7.012;2024-03-02T14:32:31;2.10;;;1.83;;
6420;SDS011;3243;50.958;7.012;2024-03-02T14:34:58;1.50;;;1.40;;
6420;SDS011;3243;50.958;7.012;2024-03-02T14:37:25;2.07;;;1.60;;
6420;SDS011;3243;50.958;7.012;2024-03-02T14:39:52;1.70;;;1.50;;
6420;SDS011;3243;50.958;7.012;2024-03-02T14:42:19;2.50;;;1.40;;
6420;SDS011;3243;50.958;7.012;2024-03-02T14:44:46;1.40;;;1.30;;
6420;SDS011;3243;50.958;7.012;2024-03-02T14:47:13;1.83;;;1.40;;
6420;SDS011;3243;50.958;7.012;2024-03-02T14:49:40;1.40;;;1.30;;
6420;SDS011;3243;50.958;7.012;2024-03-02T14:52:09;1.60;;;1.33;;
6420;SDS011;3243;50.958;7.012;2024-03-02T14:54:36;3.33;;;1.50;;
6420;SDS011;3243;50.958;7.012;2024-03-02T14:57:05;2.20;;;1.90;;
6420;SDS011;3243;50.958;7.012;2024-03-02T14:59:33;1.67;;;1.50;;
6420;SDS011;3243;50.958;7.012;2024-03-02T15:01:59;2.50;;;1.97;;
6420;SDS011;3243;50.958;7.012;2024-03-02T15:04:27;4.33;;;2.60;;
6420;SDS011;3243;50.958;7.012;2024-03-02T15:06:54;3.40;;;2.40;;
6420;SDS011;3243;50.958;7.012;2024-03-02T15:09:21;3.57;;;2.57;;
6420;SDS011;3243;50.958;7.012;2024-03-02T15:11:48;2.23;;;2.03;;
6420;SDS011;3243;50.958;7.012;2024-03-02T15:14:16;3.10;;;2.17;;
6420;SDS011;3243;50.958;7.012;2024-03-02T15:16:42;3.17;;;2.00;;
6420;SDS011;3243;50.958;7.012;2024-03-02T15:19:09;2.67;;;1.90;;
6420;SDS011;3243;50.958;7.012;2024-03-02T15:21:36;1.70;;;1.60;;
6420;SDS011;3243;50.958;7.012;2024-03-02T15:24:04;2.00;;;1.70;;
6420;SDS011;3243;50.958;7.012;2024-03-02T15:26:31;3.60;;;1.60;;
6420;SDS011;3243;50.958;7.012;2024-03-02T15:28:57;1.90;;;1.40;;
6420;SDS011;3243;50.958;7.012;2024-03-02T15:31:25;2.60;;;1.70;;
6420;SDS011;3243;50.958;7.012;2024-03-02T15:33:52;4.17;;;1.60;;
6420;SDS011;3243;50.958;7.012;2024-03-02T15:36:20;3.13;;;1.70;;
6420;SDS011;3243;50.958;7.012;2024-03-02T15:38:46;1.97;;;1.50;;
6420;SDS011;3243;50.958;7.012;2024-03-02T15:41:14;2.00;;;1.60;;
6420;SDS011;3243;50.958;7.012;2024-03-02T15:43:41;2.63;;;1.90;;